Main page
METAR-TAF:

METAR-TAF

Airports :

Bauru Airport

Bauru, São Paulo, Brazil

latitude: 22-19S, longitude: 049-04W, elevation: 590 m

Current weather observation

The report was made 41 minutes ago, at 07:00 UTC
Wind 7 kt from the East
Temperature 18°C
Humidity 94%
Pressure 1015 hPa
Visibility 10 km or more
no clouds below 1500 m and no cumulonimbus

METAR: SBBU 190700Z 08007KT CAVOK 18/17 Q1015

Time: 04:41 (07:41 UTC)

Forecast

The report was made 6 hours and 11 minutes ago, at 01:30 UTC
Forecast valid from 19 at 06 UTC to 19 at 18 UTC
Wind 6 kt from the East/Southeast
Visibility 10 km or more
no clouds below 1500 m and no cumulonimbus

TAF: SBBU 190130Z 1906/1918 11006KT CAVOK TN17/1909Z TX32/1917Z RMK PEB

Weather observations and forecasts of more than 4000 airports (METAR and TAF reports).

The available stations are represented by yellow and red dots on the map.

Hover mouse over dot to see the name of the station.

Then click to see weather observations and forecasts.

To change the map : click on the green buttons with a black cross to zoom in, on the green button with a dash to zoom out, or on the green arrows for adjacent maps.


METAR-TAF: